createdAt,value
2023-04-15T00:02:00.846Z,4.80
2023-04-15T00:04:37.496Z,4.50
2023-04-15T00:07:05.964Z,4.70
2023-04-15T00:09:34.322Z,4.90
2023-04-15T00:12:03.004Z,4.30
2023-04-15T00:14:34.835Z,5.20
2023-04-15T00:17:04.351Z,4.60
2023-04-15T00:19:33.466Z,4.20
2023-04-15T00:22:06.335Z,5.40
2023-04-15T00:24:34.512Z,4.50
2023-04-15T00:27:02.627Z,4.60
2023-04-15T00:29:36.416Z,4.40
2023-04-15T00:32:04.605Z,4.50
2023-04-15T00:34:32.668Z,4.60
2023-04-15T00:37:01.566Z,4.50
2023-04-15T00:39:29.709Z,4.80
2023-04-15T00:41:57.832Z,4.90
2023-04-15T00:44:26.131Z,4.90
2023-04-15T00:46:55.104Z,4.70
2023-04-15T00:49:26.458Z,4.80
2023-04-15T00:51:54.580Z,4.50
2023-04-15T00:54:24.740Z,5.40
2023-04-15T00:56:52.930Z,4.80
2023-04-15T00:59:22.096Z,5.20
2023-04-15T01:01:50.298Z,4.80
2023-04-15T01:04:20.517Z,5.00
2023-04-15T01:06:50.103Z,5.50
2023-04-15T01:09:21.573Z,4.50
2023-04-15T01:11:51.073Z,4.70
2023-04-15T01:14:20.142Z,5.50
2023-04-15T01:16:48.207Z,4.90
2023-04-15T01:19:17.800Z,5.70
2023-04-15T01:21:46.248Z,5.20
2023-04-15T01:24:16.654Z,5.50
2023-04-15T01:26:47.402Z,5.50
2023-04-15T01:29:15.739Z,5.60
2023-04-15T01:31:52.331Z,5.20
2023-04-15T01:34:21.787Z,5.50
2023-04-15T01:36:51.456Z,5.80
2023-04-15T01:39:20.326Z,5.30
2023-04-15T01:41:49.466Z,5.40
2023-04-15T01:44:17.804Z,5.30
2023-04-15T01:46:45.939Z,5.40
2023-04-15T01:49:14.613Z,5.70
2023-04-15T01:51:42.960Z,5.90
2023-04-15T01:54:11.348Z,6.30
2023-04-15T01:56:42.362Z,6.10
2023-04-15T01:59:11.189Z,6.60
2023-04-15T02:01:46.961Z,6.20
2023-04-15T02:04:17.504Z,6.20
2023-04-15T02:06:46.209Z,5.70
2023-04-15T02:09:16.214Z,6.80
2023-04-15T02:11:47.506Z,6.30
2023-04-15T02:14:16.442Z,7.20
2023-04-15T02:16:46.570Z,6.00
2023-04-15T02:19:17.791Z,6.50
2023-04-15T02:21:45.681Z,5.90
2023-04-15T02:24:13.845Z,5.40
2023-04-15T02:26:49.488Z,6.90
2023-04-15T02:29:18.337Z,5.60
2023-04-15T02:31:50.456Z,5.20
2023-04-15T02:34:20.482Z,6.00
2023-04-15T02:36:49.964Z,5.40
2023-04-15T02:39:18.863Z,6.10
2023-04-15T02:41:53.254Z,6.30
2023-04-15T02:44:25.037Z,8.00
2023-04-15T02:46:54.998Z,6.60
2023-04-15T02:49:25.990Z,6.90
2023-04-15T02:51:54.288Z,6.60
2023-04-15T02:54:26.323Z,7.30
2023-04-15T02:56:58.325Z,7.30
2023-04-15T02:59:27.231Z,6.50
2023-04-15T03:01:56.818Z,7.10
2023-04-15T03:04:25.318Z,7.70
2023-04-15T03:06:56.322Z,7.70
2023-04-15T03:09:25.308Z,6.80
2023-04-15T03:11:54.989Z,9.60
2023-04-15T03:14:27.180Z,7.80
2023-04-15T03:16:56.438Z,7.70
2023-04-15T03:19:25.779Z,6.60
2023-04-15T03:21:57.273Z,6.80
2023-04-15T03:24:26.347Z,7.20
2023-04-15T03:26:55.428Z,7.30
2023-04-15T03:29:24.504Z,6.90
2023-04-15T03:32:01.414Z,7.80
2023-04-15T03:34:32.482Z,8.30
2023-04-15T03:37:00.580Z,7.60
2023-04-15T03:39:28.735Z,9.70
2023-04-15T03:41:56.708Z,8.00
2023-04-15T03:44:32.942Z,7.40
2023-04-15T03:47:01.321Z,8.70
2023-04-15T03:49:29.377Z,7.10
2023-04-15T03:52:02.306Z,7.80
2023-04-15T03:54:31.323Z,8.00
2023-04-15T03:57:02.456Z,6.90
2023-04-15T03:59:32.634Z,7.80
2023-04-15T04:02:00.915Z,8.40
2023-04-15T04:04:29.352Z,7.90
2023-04-15T04:06:57.963Z,8.10
2023-04-15T04:09:26.080Z,8.20
2023-04-15T04:11:54.122Z,9.00
2023-04-15T04:14:29.369Z,8.20
2023-04-15T04:16:57.826Z,8.70
2023-04-15T04:19:25.877Z,8.10
2023-04-15T04:21:57.008Z,7.90
2023-04-15T04:24:25.099Z,8.40
2023-04-15T04:28:24.233Z,7.50
2023-04-15T04:30:55.892Z,8.30
2023-04-15T04:33:25.720Z,8.10
2023-04-15T04:35:53.772Z,7.80
2023-04-15T04:38:24.829Z,7.30
2023-04-15T04:40:56.228Z,7.70
2023-04-15T04:43:24.426Z,8.70
2023-04-15T04:45:57.122Z,7.20
2023-04-15T04:48:25.740Z,7.90
2023-04-15T04:50:54.185Z,7.60
2023-04-15T04:53:22.232Z,8.10
2023-04-15T04:55:50.458Z,8.40
2023-04-15T04:58:18.463Z,48.10
2023-04-15T05:00:46.623Z,69.40
2023-04-15T05:03:15.031Z,68.90
2023-04-15T05:05:43.626Z,68.70
2023-04-15T05:08:12.710Z,65.70
2023-04-15T05:10:41.376Z,64.10
2023-04-15T05:13:09.594Z,67.30
2023-04-15T05:15:40.011Z,66.70
2023-04-15T05:18:12.483Z,72.30
2023-04-15T05:20:42.071Z,70.30
2023-04-15T05:23:13.717Z,68.20
2023-04-15T05:25:44.563Z,66.40
2023-04-15T05:28:12.720Z,71.30
2023-04-15T05:30:42.187Z,73.00
2023-04-15T05:33:11.335Z,100.70
2023-04-15T05:35:40.269Z,66.60
2023-04-15T05:40:39.928Z,64.90
2023-04-15T05:43:50.587Z,19.50
2023-04-15T05:46:19.886Z,26.30
2023-04-15T05:48:48.537Z,45.00
2023-04-15T05:51:16.900Z,65.70
2023-04-15T05:53:46.919Z,62.80
2023-04-15T05:56:14.916Z,9.60
2023-04-15T05:58:43.243Z,8.00
2023-04-15T06:03:49.066Z,10.80
2023-04-15T06:06:17.678Z,8.00
2023-04-15T06:08:47.174Z,10.20
2023-04-15T06:11:22.098Z,7.00
2023-04-15T06:13:50.967Z,7.40
2023-04-15T06:16:19.226Z,6.50
2023-04-15T06:18:50.084Z,6.30
2023-04-15T06:21:18.233Z,6.30
2023-04-15T06:23:46.476Z,7.00
2023-04-15T06:26:14.809Z,5.40
2023-04-15T06:28:44.210Z,5.50
2023-04-15T06:31:12.295Z,5.50
2023-04-15T06:33:44.468Z,5.70
2023-04-15T06:36:12.776Z,5.30
2023-04-15T06:41:28.856Z,6.40
2023-04-15T06:43:56.957Z,6.10
2023-04-15T06:46:26.860Z,6.20
2023-04-15T06:48:55.200Z,5.50
2023-04-15T06:51:26.571Z,5.80
2023-04-15T06:53:58.637Z,6.80
2023-04-15T06:56:27.427Z,6.10
2023-04-15T06:58:55.482Z,5.90
2023-04-15T07:01:24.645Z,8.00
2023-04-15T07:03:54.908Z,19.20
2023-04-15T07:06:22.878Z,12.80
2023-04-15T07:08:53.446Z,12.60
2023-04-15T07:13:59.261Z,5.60
2023-04-15T07:16:30.036Z,5.10
2023-04-15T07:19:00.481Z,4.50
2023-04-15T07:21:29.687Z,5.60
2023-04-15T07:24:01.892Z,5.20
2023-04-15T07:26:35.663Z,5.40
2023-04-15T07:29:04.250Z,5.50
2023-04-15T07:31:32.816Z,5.80
2023-04-15T07:34:01.260Z,6.20
2023-04-15T07:36:31.621Z,4.80
2023-04-15T07:39:02.382Z,5.00
2023-04-15T07:41:31.951Z,5.00
2023-04-15T07:44:02.959Z,5.20
2023-04-15T07:46:31.416Z,5.10
2023-04-15T07:49:03.987Z,5.10
2023-04-15T07:51:32.445Z,5.60
2023-04-15T07:56:32.821Z,5.10
2023-04-15T07:59:04.864Z,4.80
2023-04-15T08:01:35.926Z,5.80
2023-04-15T08:04:04.226Z,5.90
2023-04-15T08:06:33.741Z,4.80
2023-04-15T08:09:03.374Z,5.80
2023-04-15T08:11:33.870Z,5.40
2023-04-15T08:14:07.672Z,4.80
2023-04-15T08:16:40.942Z,4.40
2023-04-15T08:19:11.730Z,3.90
2023-04-15T08:21:41.132Z,5.60
2023-04-15T08:24:09.608Z,3.40
2023-04-15T08:26:43.906Z,4.30
2023-04-15T08:29:15.766Z,4.90
2023-04-15T08:31:45.884Z,4.80
2023-04-15T08:34:14.187Z,4.20
2023-04-15T08:36:43.233Z,4.80
2023-04-15T08:39:14.486Z,5.10
2023-04-15T08:41:52.843Z,4.40
2023-04-15T08:44:21.047Z,5.00
2023-04-15T08:46:53.377Z,4.80
2023-04-15T08:49:22.994Z,4.10
2023-04-15T08:51:51.076Z,4.60
2023-04-15T08:54:22.952Z,4.30
2023-04-15T08:56:51.054Z,4.80
2023-04-15T08:59:22.089Z,3.60
2023-04-15T09:01:51.539Z,5.10
2023-04-15T09:04:19.938Z,4.10
2023-04-15T09:06:48.911Z,4.40
2023-04-15T09:09:17.204Z,4.60
2023-04-15T09:11:50.073Z,5.90
2023-04-15T09:14:18.419Z,4.70
2023-04-15T09:17:00.156Z,5.00
2023-04-15T09:19:28.866Z,5.30
2023-04-15T09:21:59.201Z,5.00
2023-04-15T09:24:37.642Z,5.10
2023-04-15T09:27:06.205Z,5.00
2023-04-15T09:29:34.880Z,4.70
2023-04-15T09:32:13.426Z,5.40
2023-04-15T09:34:41.932Z,6.40
2023-04-15T09:37:11.293Z,5.00
2023-04-15T09:39:52.242Z,5.60
2023-04-15T09:42:27.538Z,10.10
2023-04-15T09:44:55.591Z,5.30
2023-04-15T09:47:41.899Z,4.90
2023-04-15T09:50:14.683Z,9.90
2023-04-15T09:52:45.843Z,5.80
2023-04-15T09:55:14.668Z,5.70
2023-04-15T09:57:46.081Z,4.90
2023-04-15T10:00:18.330Z,4.20
2023-04-15T10:02:50.054Z,4.90
2023-04-15T10:05:18.157Z,5.40
2023-04-15T10:07:48.451Z,5.60
2023-04-15T10:10:16.883Z,5.30
2023-04-15T10:12:45.441Z,6.40
2023-04-15T10:15:16.706Z,5.80
2023-04-15T10:17:46.437Z,4.70
2023-04-15T10:20:15.586Z,7.60
2023-04-15T10:22:44.296Z,6.30
2023-04-15T10:25:14.061Z,9.70
2023-04-15T10:27:42.331Z,5.50
2023-04-15T10:30:11.782Z,4.90
2023-04-15T10:32:41.662Z,6.40
2023-04-15T10:35:09.827Z,5.40
2023-04-15T10:37:39.919Z,4.90
2023-04-15T10:40:28.713Z,7.20
2023-04-15T10:42:59.803Z,13.60
2023-04-15T10:45:29.151Z,5.50
2023-04-15T10:47:58.200Z,6.80
2023-04-15T10:53:03.600Z,65.80
2023-04-15T10:55:33.012Z,65.00
2023-04-15T10:58:02.197Z,63.80
2023-04-15T11:00:32.322Z,61.60
2023-04-15T11:03:06.923Z,62.00
2023-04-15T11:05:41.663Z,75.40
2023-04-15T11:08:10.762Z,67.30
2023-04-15T11:10:39.334Z,61.60
2023-04-15T11:15:43.189Z,5.60
2023-04-15T11:18:21.068Z,6.30
2023-04-15T11:20:50.584Z,5.40
2023-04-15T11:23:19.760Z,5.70
2023-04-15T11:25:49.122Z,6.40
2023-04-15T11:28:17.177Z,5.80
2023-04-15T11:30:46.016Z,6.40
2023-04-15T11:33:14.393Z,5.80
2023-04-15T11:35:43.182Z,5.40
2023-04-15T11:38:13.184Z,5.00
2023-04-15T11:40:43.824Z,5.80
2023-04-15T11:43:21.027Z,6.10
2023-04-15T11:45:51.593Z,103.80
2023-04-15T11:48:31.677Z,145.60
2023-04-15T11:51:04.341Z,117.90
2023-04-15T11:53:49.798Z,94.90
2023-04-15T11:56:22.021Z,112.50
2023-04-15T11:58:57.264Z,141.80
2023-04-15T12:01:35.488Z,112.90
2023-04-15T12:04:06.606Z,169.20
2023-04-15T12:06:39.405Z,201.40
2023-04-15T12:09:13.995Z,131.40
2023-04-15T12:11:51.258Z,86.50
2023-04-15T12:14:28.484Z,176.30
2023-04-15T12:17:05.079Z,180.40
2023-04-15T12:19:37.731Z,105.70
2023-04-15T12:22:15.549Z,115.10
2023-04-15T12:24:47.117Z,182.20
2023-04-15T12:27:17.846Z,49.40
2023-04-15T12:29:45.951Z,24.10
2023-04-15T12:32:21.067Z,110.50
2023-04-15T12:34:53.956Z,221.70
2023-04-15T12:37:22.211Z,198.50
2023-04-15T12:42:31.527Z,5.90
2023-04-15T12:44:59.525Z,7.10
2023-04-15T12:47:27.960Z,7.20
2023-04-15T12:49:56.816Z,6.20
2023-04-15T12:52:25.682Z,6.10
2023-04-15T12:54:53.774Z,5.40
2023-04-15T12:57:22.425Z,6.60
2023-04-15T12:59:50.690Z,6.50
2023-04-15T13:02:21.396Z,5.90
2023-04-15T13:04:50.451Z,6.20
2023-04-15T13:07:18.847Z,28.90
2023-04-15T13:09:46.971Z,68.40
2023-04-15T13:12:16.379Z,76.90
2023-04-15T13:14:44.546Z,7.60
2023-04-15T13:17:12.765Z,5.70
2023-04-15T13:19:40.905Z,5.40
2023-04-15T13:22:09.360Z,10.20
2023-04-15T13:24:39.412Z,43.60
2023-04-15T13:29:51.678Z,33.60
2023-04-15T13:34:57.148Z,73.70
2023-04-15T13:37:28.500Z,68.60
2023-04-15T13:39:57.502Z,65.70
2023-04-15T13:44:51.890Z,31.70
2023-04-15T13:47:20.641Z,63.40
2023-04-15T13:49:48.770Z,62.80
2023-04-15T13:52:16.948Z,65.40
2023-04-15T13:54:45.656Z,65.80
2023-04-15T13:57:15.025Z,63.90
2023-04-15T13:59:44.279Z,61.80
2023-04-15T14:02:15.242Z,61.00
2023-04-15T14:04:43.928Z,66.90
2023-04-15T14:07:13.200Z,65.90
2023-04-15T14:09:43.276Z,63.00
2023-04-15T14:12:12.326Z,62.40
2023-04-15T14:14:41.386Z,63.40
2023-04-15T14:17:09.636Z,62.80
2023-04-15T14:19:37.789Z,63.50
2023-04-15T14:22:06.291Z,64.10
2023-04-15T14:24:37.388Z,62.30
2023-04-15T14:27:06.489Z,64.40
2023-04-15T14:29:34.906Z,64.70
2023-04-15T14:32:08.777Z,61.70
2023-04-15T14:34:43.392Z,63.80
2023-04-15T14:37:11.607Z,61.90
2023-04-15T14:39:39.971Z,63.60
2023-04-15T14:42:10.085Z,61.50
2023-04-15T14:44:38.258Z,61.00
2023-04-15T14:47:06.442Z,61.40
2023-04-15T14:52:21.042Z,35.20
2023-04-15T14:56:31.095Z,7.50
2023-04-15T14:58:59.182Z,24.80
2023-04-15T15:01:27.501Z,29.50
2023-04-15T15:09:46.979Z,68.70
2023-04-15T15:12:15.308Z,66.70
2023-04-15T15:16:11.404Z,7.60
2023-04-15T15:18:40.463Z,6.80
2023-04-15T15:21:07.144Z,5.60
2023-04-15T15:23:34.089Z,6.20
2023-04-15T15:26:02.103Z,5.80
2023-04-15T15:28:28.921Z,7.10
2023-04-15T15:30:56.861Z,8.30
2023-04-15T15:33:24.288Z,6.90
2023-04-15T15:35:51.145Z,8.90
2023-04-15T15:38:17.787Z,6.70
2023-04-15T15:40:44.607Z,6.70
2023-04-15T15:43:11.226Z,10.70
2023-04-15T15:45:38.603Z,10.40
2023-04-15T15:48:06.936Z,12.60
2023-04-15T15:50:34.714Z,11.50
2023-04-15T15:53:01.540Z,7.70
2023-04-15T15:55:28.650Z,9.60
2023-04-15T15:57:55.532Z,13.00
2023-04-15T16:00:22.655Z,11.00
2023-04-15T16:03:06.180Z,9.00
2023-04-15T16:05:35.321Z,9.10
2023-04-15T16:08:02.349Z,8.10
2023-04-15T16:10:29.416Z,8.00
2023-04-15T16:12:56.231Z,8.70
2023-04-15T16:15:24.603Z,7.90
2023-04-15T16:17:51.541Z,8.50
2023-04-15T16:20:20.421Z,9.10
2023-04-15T16:22:47.079Z,12.60
2023-04-15T16:25:16.420Z,12.70
2023-04-15T16:27:57.148Z,16.60
2023-04-15T16:30:28.815Z,20.00
2023-04-15T16:32:56.530Z,8.90
2023-04-15T16:35:23.537Z,44.70
2023-04-15T16:37:50.254Z,8.40
2023-04-15T16:40:17.142Z,9.10
2023-04-15T16:42:49.947Z,17.50
2023-04-15T16:45:19.723Z,10.70
2023-04-15T16:47:46.437Z,9.40
2023-04-15T16:50:13.019Z,10.20
2023-04-15T16:52:40.087Z,8.40
2023-04-15T16:55:06.829Z,9.80
2023-04-15T16:58:00.524Z,12.10
2023-04-15T17:00:21.363Z,9.30
2023-04-15T17:02:48.088Z,12.10
2023-04-15T17:05:14.957Z,8.30
2023-04-15T17:07:44.206Z,8.10
2023-04-15T17:10:13.187Z,17.60
2023-04-15T17:13:51.688Z,31.90
2023-04-15T17:16:19.783Z,10.40
2023-04-15T17:18:47.986Z,124.60
2023-04-15T17:21:17.290Z,43.10
2023-04-15T17:23:45.575Z,59.00
2023-04-15T17:26:13.830Z,10.30
2023-04-15T17:28:41.858Z,11.20
2023-04-15T17:31:11.552Z,10.50
2023-04-15T17:34:02.499Z,9.60
2023-04-15T17:36:28.242Z,13.80
2023-04-15T17:41:05.277Z,10.50
2023-04-15T17:43:31.951Z,10.10
2023-04-15T17:45:58.986Z,6.90
2023-04-15T17:48:25.834Z,9.30
2023-04-15T17:50:52.798Z,9.40
2023-04-15T17:53:20.448Z,11.30
2023-04-15T17:55:47.013Z,9.20
2023-04-15T17:58:13.627Z,11.50
2023-04-15T18:00:40.370Z,12.50
2023-04-15T18:03:07.146Z,9.10
2023-04-15T18:05:35.462Z,10.90
2023-04-15T18:08:02.076Z,11.60
2023-04-15T18:10:29.698Z,10.90
2023-04-15T18:12:56.607Z,10.90
2023-04-15T18:15:23.162Z,11.50
2023-04-15T18:17:50.134Z,10.00
2023-04-15T18:20:22.823Z,9.10
2023-04-15T18:22:51.288Z,12.20
2023-04-15T18:25:18.290Z,11.90
2023-04-15T18:27:46.810Z,9.10
2023-04-15T18:30:13.669Z,11.00
2023-04-15T18:35:29.346Z,13.30
2023-04-15T18:37:58.004Z,10.30
2023-04-15T18:40:27.251Z,10.60
2023-04-15T18:42:55.156Z,10.60
2023-04-15T18:45:22.087Z,13.70
2023-04-15T18:47:50.349Z,10.30
2023-04-15T18:50:17.478Z,12.70
2023-04-15T18:52:44.532Z,12.70
2023-04-15T18:55:17.164Z,8.20
2023-04-15T18:57:46.145Z,12.20
2023-04-15T19:00:18.692Z,10.90
2023-04-15T19:02:47.186Z,9.00
2023-04-15T19:05:16.219Z,11.40
2023-04-15T19:07:44.434Z,11.60
2023-04-15T19:10:12.201Z,11.80
2023-04-15T19:12:42.167Z,11.20
2023-04-15T19:15:11.804Z,11.10
2023-04-15T19:17:39.057Z,11.10
2023-04-15T19:20:08.127Z,12.30
2023-04-15T19:22:35.993Z,12.30
2023-04-15T19:25:04.681Z,13.00
2023-04-15T19:27:31.736Z,10.40
2023-04-15T19:30:01.287Z,11.90
2023-04-15T19:32:28.303Z,12.30
2023-04-15T19:34:54.973Z,12.70
2023-04-15T19:37:21.979Z,13.10
2023-04-15T19:39:48.871Z,12.40
2023-04-15T19:42:16.517Z,12.80
2023-04-15T19:44:43.271Z,12.20
2023-04-15T19:47:12.196Z,13.40
2023-04-15T19:49:39.120Z,10.70
2023-04-15T19:52:06.450Z,12.70
2023-04-15T19:54:33.153Z,14.00
2023-04-15T19:57:01.503Z,12.40
2023-04-15T19:59:32.354Z,10.50
2023-04-15T20:02:01.865Z,11.90
2023-04-15T20:04:31.867Z,12.40
2023-04-15T20:06:58.545Z,11.00
2023-04-15T20:09:27.656Z,12.80
2023-04-15T20:12:45.605Z,12.60
2023-04-15T20:14:45.703Z,12.30
2023-04-15T20:17:13.894Z,12.00
2023-04-15T20:19:41.025Z,14.10
2023-04-15T20:22:07.607Z,14.90
2023-04-15T20:24:34.372Z,13.40
2023-04-15T20:27:01.409Z,13.30
2023-04-15T20:29:28.216Z,13.90
2023-04-15T20:31:55.781Z,13.30
2023-04-15T20:34:22.432Z,13.40
2023-04-15T20:36:49.121Z,12.90
2023-04-15T20:39:16.645Z,12.20
2023-04-15T20:41:43.301Z,11.90
2023-04-15T20:44:10.746Z,11.60
2023-04-15T20:46:37.459Z,12.90
2023-04-15T20:49:04.443Z,11.80
2023-04-15T20:51:36.893Z,13.80
2023-04-15T20:54:04.425Z,14.10
2023-04-15T20:56:31.251Z,12.80
2023-04-15T20:58:58.891Z,14.90
2023-04-15T21:01:26.748Z,17.40
2023-04-15T21:03:53.627Z,15.70
2023-04-15T21:06:20.376Z,17.50
2023-04-15T21:08:47.002Z,20.90
2023-04-15T21:11:18.312Z,21.50
2023-04-15T21:13:50.946Z,28.60
2023-04-15T21:16:17.739Z,64.90
2023-04-15T21:21:17.921Z,14.60
2023-04-15T21:23:48.040Z,15.10
2023-04-15T21:26:16.019Z,17.60
2023-04-15T21:28:44.086Z,18.30
2023-04-15T21:31:12.137Z,31.30
2023-04-15T21:33:42.875Z,42.50
2023-04-15T21:36:11.005Z,23.20
2023-04-15T21:38:42.100Z,26.30
2023-04-15T21:41:12.953Z,25.90
2023-04-15T21:43:40.984Z,29.10
2023-04-15T21:46:23.685Z,28.80
2023-04-15T21:48:53.372Z,27.10
2023-04-15T21:51:21.813Z,32.80
2023-04-15T21:53:50.487Z,44.30
2023-04-15T21:56:20.753Z,32.20
2023-04-15T21:58:48.720Z,28.30
2023-04-15T22:01:17.286Z,31.70
2023-04-15T22:03:45.781Z,35.00
2023-04-15T22:06:14.083Z,36.40
2023-04-15T22:08:55.113Z,55.10
2023-04-15T22:11:28.223Z,32.00
2023-04-15T22:13:57.500Z,34.40
2023-04-15T22:16:26.773Z,54.20
2023-04-15T22:18:55.987Z,44.30
2023-04-15T22:21:24.291Z,35.20
2023-04-15T22:23:52.820Z,50.40
2023-04-15T22:26:41.778Z,55.90
2023-04-15T22:29:09.855Z,69.50
2023-04-15T22:31:38.037Z,56.60
2023-04-15T22:34:06.140Z,70.30
2023-04-15T22:36:37.431Z,76.10
2023-04-15T22:39:06.199Z,73.70
2023-04-15T22:41:35.916Z,73.40
2023-04-15T22:44:03.944Z,53.40
2023-04-15T22:46:33.932Z,41.80
2023-04-15T22:49:02.119Z,76.20
2023-04-15T22:51:30.412Z,76.90
2023-04-15T22:53:58.622Z,74.10
2023-04-15T22:56:26.648Z,76.90
2023-04-15T22:58:54.968Z,81.20
2023-04-15T23:01:22.921Z,77.50
2023-04-15T23:03:56.964Z,76.80
2023-04-15T23:06:32.758Z,75.60
2023-04-15T23:09:01.333Z,72.70
2023-04-15T23:11:32.943Z,44.70
2023-04-15T23:14:01.619Z,39.40
2023-04-15T23:16:32.064Z,70.20
2023-04-15T23:19:00.322Z,81.80
2023-04-15T23:21:30.334Z,93.80
2023-04-15T23:23:58.391Z,88.10
2023-04-15T23:26:27.468Z,78.30
2023-04-15T23:28:58.462Z,114.30
2023-04-15T23:31:26.483Z,25.20
2023-04-15T23:33:54.503Z,25.60
2023-04-15T23:36:22.460Z,31.80
2023-04-15T23:38:50.574Z,29.90
2023-04-15T23:41:18.642Z,30.00
2023-04-15T23:43:51.746Z,30.20
2023-04-15T23:46:21.507Z,31.80
2023-04-15T23:48:49.928Z,31.20
2023-04-15T23:51:17.876Z,34.70
2023-04-15T23:53:47.197Z,33.20
2023-04-15T23:56:15.856Z,34.00
2023-04-15T23:58:43.886Z,33.10
